Time;durP1;ratioP1;P1;durP2;ratioP2;P2;SDS_P1;SDS_P2;PMS_P1;PMS_P2;Temp;Humidity;BMP_temperature;BMP_pressure;BME280_temperature;BME280_humidity;BME280_pressure;Samples;Min_cycle;Max_cycle;Signal;HPM_P1;HPM_P2
2022/05/06 00:01:51;;;;;;;16.23;14.52;;;15.10;99.90;;;;;;4974004;28;20046;-89
2022/05/06 00:04:18;;;;;;;20.23;15.05;;;15.00;99.90;;;;;;4973830;28;20058;-90
2022/05/06 00:06:43;;;;;;;16.48;14.88;;;15.00;99.90;;;;;;4972565;28;20030;-90
2022/05/06 00:09:12;;;;;;;21.17;15.35;;;15.00;99.90;;;;;;4974078;28;20093;-90
2022/05/06 00:11:38;;;;;;;16.42;14.73;;;14.90;99.90;;;;;;4973693;28;20031;-88
2022/05/06 00:14:04;;;;;;;17.90;14.73;;;14.90;99.90;;;;;;4973903;28;20466;-92
2022/05/06 00:16:30;;;;;;;16.45;14.65;;;14.90;99.90;;;;;;4974533;28;20125;-93
2022/05/06 00:18:55;;;;;;;17.05;15.25;;;14.90;99.90;;;;;;4974687;28;20019;-94
2022/05/06 00:21:21;;;;;;;19.80;15.55;;;14.80;99.90;;;;;;4974016;28;20034;-94
2022/05/06 00:23:48;;;;;;;21.85;15.00;;;14.80;99.90;;;;;;4974659;28;20026;-92
2022/05/06 00:26:13;;;;;;;22.50;16.08;;;14.80;99.90;;;;;;4978952;28;20066;-95
2022/05/06 00:28:40;;;;;;;18.73;16.73;;;14.70;99.90;;;;;;4981051;28;20073;-93
2022/05/06 00:31:09;;;;;;;18.02;16.13;;;14.70;99.90;;;;;;4975626;28;20038;-94
2022/05/06 00:33:38;;;;;;;19.05;17.13;;;14.70;99.90;;;;;;4975787;28;20401;-95
2022/05/06 00:36:07;;;;;;;16.92;15.32;;;14.70;99.90;;;;;;4975852;28;20037;-93
2022/05/06 00:38:45;;;;;;;19.50;16.52;;;14.60;99.90;;;;;;4974909;28;20080;-91
2022/05/06 00:41:10;;;;;;;17.90;15.95;;;14.50;99.90;;;;;;4963346;28;20466;-90
2022/05/06 00:43:42;;;;;;;18.13;16.40;;;14.40;99.90;;;;;;4974081;28;20085;-90
2022/05/06 00:46:12;;;;;;;18.70;16.80;;;14.40;99.90;;;;;;4973927;28;20405;-91
2022/05/06 00:48:42;;;;;;;20.00;17.95;;;14.50;99.90;;;;;;4975330;28;20090;-94
2022/05/06 00:51:09;;;;;;;19.17;17.10;;;14.50;99.90;;;;;;4978733;28;20608;-96
2022/05/06 00:53:36;;;;;;;19.63;16.75;;;14.40;99.90;;;;;;4982336;28;20035;-95
2022/05/06 00:56:07;;;;;;;20.08;18.02;;;14.30;99.90;;;;;;4975376;28;20023;-96
2022/05/06 00:58:34;;;;;;;21.85;19.75;;;14.20;99.90;;;;;;4975327;28;20388;-95
2022/05/06 01:01:03;;;;;;;24.92;20.80;;;14.10;99.90;;;;;;4975295;28;20101;-94
2022/05/06 01:03:33;;;;;;;21.95;19.83;;;14.00;99.90;;;;;;4975231;28;20031;-94
2022/05/06 01:06:04;;;;;;;23.05;20.70;;;14.10;99.90;;;;;;4988691;28;20026;-94
2022/05/06 01:08:32;;;;;;;24.23;21.73;;;14.20;99.90;;;;;;4989569;28;20130;-92
2022/05/06 01:10:58;;;;;;;23.80;21.35;;;14.30;99.90;;;;;;4976375;28;20557;-91
2022/05/06 01:13:24;;;;;;;23.83;21.40;;;14.40;99.90;;;;;;4975708;28;20054;-91
2022/05/06 01:15:54;;;;;;;22.92;20.40;;;14.40;99.90;;;;;;4967531;28;20047;-90
2022/05/06 01:18:20;;;;;;;23.67;21.38;;;14.40;99.90;;;;;;4971631;28;20042;-92
2022/05/06 01:20:51;;;;;;;24.05;21.73;;;14.40;99.90;;;;;;4968787;28;20034;-93
2022/05/06 01:23:18;;;;;;;24.30;21.73;;;14.40;99.90;;;;;;4953607;28;20030;-93
2022/05/06 01:25:44;;;;;;;25.45;22.95;;;14.40;99.90;;;;;;4974604;28;20409;-92
2022/05/06 01:28:13;;;;;;;23.52;21.17;;;14.40;99.90;;;;;;4989633;28;20046;-93
2022/05/06 01:30:44;;;;;;;26.42;23.67;;;14.40;99.90;;;;;;4974003;28;20633;-94
2022/05/06 01:33:11;;;;;;;26.58;23.83;;;14.40;99.90;;;;;;4974304;28;20121;-93
2022/05/06 01:35:49;;;;;;;26.52;23.70;;;14.50;99.90;;;;;;4973940;28;20029;-90
2022/05/06 01:38:31;;;;;;;27.15;24.55;;;14.50;99.90;;;;;;4978410;28;20386;-92
2022/05/06 01:41:01;;;;;;;29.02;25.83;;;14.40;99.90;;;;;;4973487;28;20023;-88
2022/05/06 01:43:32;;;;;;;32.88;27.95;;;14.50;99.90;;;;;;4972465;28;20054;-88
2022/05/06 01:45:59;;;;;;;28.70;25.73;;;14.50;99.90;;;;;;4972085;28;20553;-88
2022/05/06 01:48:28;;;;;;;26.13;23.42;;;14.50;99.90;;;;;;4968885;28;20038;-88
2022/05/06 01:50:55;;;;;;;26.10;23.27;;;14.50;99.90;;;;;;4961505;28;20026;-88
2022/05/06 01:53:21;;;;;;;25.15;22.55;;;14.50;99.90;;;;;;4967735;28;20097;-89
2022/05/06 01:55:47;;;;;;;26.33;23.75;;;14.50;99.90;;;;;;4963847;28;20470;-89
2022/05/06 01:58:13;;;;;;;25.52;23.08;;;14.50;99.90;;;;;;4972618;28;20505;-89
2022/05/06 02:00:39;;;;;;;26.17;23.38;;;14.50;99.90;;;;;;4972359;28;20114;-89
2022/05/06 02:03:05;;;;;;;24.08;21.63;;;14.50;99.90;;;;;;4972488;28;20411;-89
2022/05/06 02:05:31;;;;;;;26.80;23.38;;;14.60;99.90;;;;;;4982483;28;20030;-89
2022/05/06 02:07:57;;;;;;;24.30;21.80;;;14.60;99.90;;;;;;4973142;28;20050;-91
2022/05/06 02:10:26;;;;;;;24.90;22.45;;;14.60;99.90;;;;;;4973176;28;20485;-91
2022/05/06 02:12:52;;;;;;;25.48;22.20;;;14.60;99.90;;;;;;4973154;28;20042;-90
2022/05/06 02:15:19;;;;;;;28.63;23.48;;;14.60;99.90;;;;;;4988127;28;20039;-91
2022/05/06 02:17:45;;;;;;;26.15;23.58;;;14.60;99.90;;;;;;4972337;28;20026;-90
2022/05/06 02:20:17;;;;;;;26.90;24.38;;;14.50;99.90;;;;;;4987873;28;20419;-90
2022/05/06 02:22:43;;;;;;;26.30;23.70;;;14.50;99.90;;;;;;4972079;28;20022;-88
2022/05/06 02:25:09;;;;;;;25.90;23.33;;;14.50;99.90;;;;;;4970551;28;20576;-88
2022/05/06 02:27:36;;;;;;;25.58;22.88;;;14.50;99.90;;;;;;4971166;28;20068;-88
2022/05/06 02:35:32;;;;;;;26.83;24.02;;;14.40;99.90;;;;;;4975520;28;20041;-86
2022/05/06 02:37:58;;;;;;;27.40;24.52;;;14.40;99.90;;;;;;4975087;28;20558;-86
2022/05/06 02:40:24;;;;;;;26.83;24.23;;;14.40;99.90;;;;;;4974901;28;20022;-87
2022/05/06 02:42:50;;;;;;;26.58;23.88;;;14.40;99.90;;;;;;4975109;28;20401;-87
2022/05/06 02:45:16;;;;;;;25.48;22.65;;;14.40;99.90;;;;;;4974224;28;20144;-87
2022/05/06 02:47:41;;;;;;;24.98;22.58;;;14.40;99.90;;;;;;4973396;28;20446;-87
2022/05/06 02:50:08;;;;;;;25.13;22.55;;;14.40;99.90;;;;;;4975061;28;20041;-87
2022/05/06 02:52:33;;;;;;;22.92;20.52;;;14.40;99.90;;;;;;4975082;28;20625;-88
2022/05/06 02:54:59;;;;;;;25.35;22.73;;;14.40;99.90;;;;;;4973784;28;20027;-88
2022/05/06 02:57:25;;;;;;;24.48;21.95;;;14.30;99.90;;;;;;4974845;28;20106;-87
2022/05/06 02:59:51;;;;;;;24.60;22.17;;;14.30;99.90;;;;;;4974626;28;20557;-87
2022/05/06 03:02:17;;;;;;;26.98;24.27;;;14.30;99.90;;;;;;4974897;28;20533;-87
2022/05/06 03:04:43;;;;;;;25.35;22.80;;;14.40;99.90;;;;;;4975140;28;20131;-88
2022/05/06 03:07:08;;;;;;;25.10;22.23;;;14.40;99.90;;;;;;4974694;28;20043;-87
2022/05/06 03:09:35;;;;;;;26.02;23.20;;;14.30;99.90;;;;;;4974892;28;20496;-87
2022/05/06 03:12:01;;;;;;;24.80;22.35;;;14.30;99.90;;;;;;4974423;28;20030;-88
2022/05/06 03:14:26;;;;;;;25.75;22.33;;;14.30;99.90;;;;;;4989889;28;20489;-87
2022/05/06 03:16:52;;;;;;;24.05;21.70;;;14.30;99.90;;;;;;4974738;28;20450;-88
2022/05/06 03:19:18;;;;;;;30.40;23.67;;;14.30;99.90;;;;;;4975020;28;20027;-88
2022/05/06 03:21:51;;;;;;;27.10;23.13;;;14.30;99.90;;;;;;4994572;28;20097;-88
2022/05/06 03:24:17;;;;;;;25.67;23.08;;;14.30;99.90;;;;;;4993254;28;20034;-87
2022/05/06 03:26:43;;;;;;;25.15;22.63;;;14.30;99.90;;;;;;4993780;28;20029;-87
2022/05/06 03:29:09;;;;;;;23.23;20.92;;;14.30;99.90;;;;;;4993225;28;20039;-87
2022/05/06 03:31:36;;;;;;;22.70;20.45;;;14.20;99.90;;;;;;4992486;28;20052;-87
2022/05/06 03:34:02;;;;;;;23.85;21.08;;;14.20;99.90;;;;;;4994014;28;20511;-87
2022/05/06 03:36:28;;;;;;;22.98;20.77;;;14.20;99.90;;;;;;4993324;28;20027;-88
2022/05/06 03:38:54;;;;;;;22.52;20.27;;;14.20;99.90;;;;;;4993630;28;20030;-86
2022/05/06 03:41:20;;;;;;;23.40;21.20;;;14.20;99.90;;;;;;4992229;28;20609;-87
2022/05/06 03:43:48;;;;;;;25.17;22.67;;;14.20;99.90;;;;;;4993448;28;20390;-87
2022/05/06 03:46:14;;;;;;;25.27;22.63;;;14.20;99.90;;;;;;4993246;28;20030;-87
2022/05/06 03:48:40;;;;;;;26.27;23.58;;;14.20;99.90;;;;;;4992824;28;20072;-87
2022/05/06 03:51:21;;;;;;;27.70;24.35;;;14.20;99.90;;;;;;4991973;28;20474;-87
2022/05/06 03:53:52;;;;;;;29.08;23.63;;;14.20;99.90;;;;;;4990426;28;20022;-88
2022/05/06 03:56:18;;;;;;;26.67;23.95;;;14.20;99.90;;;;;;4976001;28;20033;-88
2022/05/06 03:58:44;;;;;;;25.48;22.88;;;14.10;99.90;;;;;;4992164;28;20031;-88
2022/05/06 04:01:11;;;;;;;25.85;22.60;;;14.20;99.90;;;;;;4992716;28;20022;-87
2022/05/06 04:03:38;;;;;;;26.30;23.60;;;14.20;99.90;;;;;;4993107;28;20485;-88
2022/05/06 04:06:04;;;;;;;25.98;23.15;;;14.20;99.90;;;;;;4993034;28;20040;-87
2022/05/06 04:08:32;;;;;;;25.17;22.65;;;14.20;99.90;;;;;;4993024;28;20038;-87
2022/05/06 04:10:58;;;;;;;24.00;21.42;;;14.20;99.90;;;;;;4993037;28;20018;-87
2022/05/06 04:13:24;;;;;;;23.13;20.83;;;14.10;99.90;;;;;;4991544;28;20438;-88
2022/05/06 04:15:50;;;;;;;18.63;16.88;;;14.20;99.90;;;;;;4972068;28;20023;-87
2022/05/06 04:18:17;;;;;;;20.42;17.08;;;14.10;99.90;;;;;;4991396;28;20030;-87
2022/05/06 04:23:31;;;;;;;15.93;14.45;;;14.10;99.90;;;;;;4992432;28;20066;-88
2022/05/06 04:26:02;;;;;;;15.65;13.82;;;14.10;99.90;;;;;;4993021;28;20042;-88
2022/05/06 04:28:29;;;;;;;16.60;14.73;;;14.00;99.90;;;;;;4973536;28;20038;-86
2022/05/06 04:30:55;;;;;;;15.57;13.85;;;14.10;99.90;;;;;;4992440;28;20476;-87
2022/05/06 04:33:22;;;;;;;14.35;13.02;;;14.00;99.90;;;;;;4992476;28;20037;-86
2022/05/06 04:35:48;;;;;;;15.52;13.88;;;14.00;99.90;;;;;;4992351;28;20057;-87
2022/05/06 04:38:14;;;;;;;15.25;13.70;;;14.00;99.90;;;;;;4991086;28;20037;-86
2022/05/06 04:40:41;;;;;;;15.10;13.50;;;14.00;99.90;;;;;;4992724;28;20029;-86
2022/05/06 04:43:08;;;;;;;14.50;12.27;;;13.90;99.90;;;;;;4974208;28;20038;-87
2022/05/06 04:45:41;;;;;;;15.05;13.45;;;13.90;99.90;;;;;;4991082;28;20102;-87
2022/05/06 04:48:08;;;;;;;15.38;13.82;;;13.90;99.90;;;;;;4992301;28;20561;-87
2022/05/06 04:50:34;;;;;;;17.85;14.10;;;13.90;99.90;;;;;;4992371;28;20050;-86
2022/05/06 04:53:07;;;;;;;14.63;13.23;;;13.90;99.90;;;;;;4991969;28;20085;-87
2022/05/06 04:55:36;;;;;;;18.63;12.35;;;13.90;99.90;;;;;;4986272;28;20026;-86
2022/05/06 04:58:03;;;;;;;14.82;13.27;;;13.90;99.90;;;;;;4992151;28;20045;-87
2022/05/06 05:00:29;;;;;;;14.05;12.80;;;13.90;99.90;;;;;;4968539;28;20031;-88
2022/05/06 05:02:55;;;;;;;15.75;14.23;;;13.90;99.90;;;;;;4991494;28;20101;-87
2022/05/06 05:05:20;;;;;;;14.75;13.20;;;13.90;99.90;;;;;;4992229;28;20105;-86
2022/05/06 05:07:46;;;;;;;15.55;13.80;;;13.90;99.90;;;;;;4991596;28;20043;-86
2022/05/06 05:10:12;;;;;;;15.32;12.65;;;13.90;99.90;;;;;;4992226;28;20037;-86
2022/05/06 05:12:38;;;;;;;16.15;14.30;;;13.90;99.90;;;;;;4991645;28;20061;-86
2022/05/06 05:15:04;;;;;;;15.63;13.77;;;14.00;99.90;;;;;;4991415;28;20128;-87
2022/05/06 05:17:30;;;;;;;14.60;13.23;;;14.00;99.90;;;;;;4992272;28;20222;-89
2022/05/06 05:19:56;;;;;;;18.08;13.48;;;14.10;99.90;;;;;;4992620;28;20542;-89
2022/05/06 05:22:22;;;;;;;12.68;11.43;;;14.10;99.90;;;;;;4992783;28;20038;-91
2022/05/06 05:24:48;;;;;;;14.63;12.38;;;14.10;99.90;;;;;;4992678;28;20117;-89
2022/05/06 05:27:14;;;;;;;13.27;11.98;;;14.10;99.90;;;;;;4992677;28;20218;-93
2022/05/06 05:29:40;;;;;;;14.52;13.13;;;14.20;99.90;;;;;;4993350;28;20019;-91
2022/05/06 05:32:07;;;;;;;14.15;12.75;;;14.20;99.90;;;;;;4994168;28;20090;-95
2022/05/06 05:34:33;;;;;;;13.93;12.60;;;14.20;99.90;;;;;;4996217;28;20034;-94
2022/05/06 05:36:59;;;;;;;13.48;11.90;;;14.20;99.90;;;;;;4995250;28;20450;-93
2022/05/06 05:39:25;;;;;;;13.27;11.93;;;14.30;99.90;;;;;;4990899;28;20027;-87
2022/05/06 05:41:50;;;;;;;13.38;12.02;;;14.30;99.90;;;;;;4991420;28;20371;-89
2022/05/06 05:49:44;;;;;;;12.85;11.68;;;14.40;99.90;;;;;;4992662;28;20025;-90
2022/05/06 05:52:11;;;;;;;14.20;12.57;;;14.40;99.90;;;;;;4991795;28;20030;-86
2022/05/06 05:54:38;;;;;;;13.68;12.38;;;14.40;99.90;;;;;;4994408;28;20069;-95
2022/05/06 05:57:04;;;;;;;13.38;11.98;;;14.40;99.90;;;;;;4974966;28;20036;-89
2022/05/06 05:59:30;;;;;;;13.38;12.13;;;14.40;99.90;;;;;;4995087;28;20018;-90
2022/05/06 06:01:56;;;;;;;13.50;11.85;;;14.40;99.90;;;;;;4984408;28;20076;-92
2022/05/06 06:04:22;;;;;;;13.15;11.90;;;14.50;99.90;;;;;;4992513;28;20101;-89
2022/05/06 06:06:48;;;;;;;13.32;12.07;;;14.50;99.90;;;;;;4996142;28;20121;-85
2022/05/06 06:09:14;;;;;;;16.48;12.68;;;14.50;99.90;;;;;;4995704;28;20072;-87
2022/05/06 06:11:40;;;;;;;13.43;12.13;;;14.60;99.90;;;;;;4994788;28;20022;-86
2022/05/06 06:14:06;;;;;;;14.05;12.68;;;14.60;99.90;;;;;;4995085;28;20057;-86
2022/05/06 06:16:31;;;;;;;12.95;11.75;;;14.60;99.90;;;;;;4987388;28;20034;-86
2022/05/06 06:19:00;;;;;;;13.02;11.73;;;14.70;99.90;;;;;;4994521;28;20034;-86
2022/05/06 06:21:26;;;;;;;13.60;11.98;;;14.70;99.90;;;;;;4994876;28;20109;-86
2022/05/06 06:23:52;;;;;;;13.02;11.65;;;14.80;99.90;;;;;;4994928;28;20117;-87
2022/05/06 06:26:18;;;;;;;13.65;12.02;;;14.80;99.90;;;;;;4993190;28;20497;-86
2022/05/06 06:28:43;;;;;;;14.25;11.35;;;14.80;99.90;;;;;;4993961;28;20429;-86
2022/05/06 06:31:12;;;;;;;12.20;11.10;;;14.90;99.90;;;;;;4994006;28;20105;-86
2022/05/06 06:33:45;;;;;;;12.38;10.85;;;14.90;99.90;;;;;;4994650;28;20026;-86
2022/05/06 06:36:11;;;;;;;11.70;10.43;;;15.00;99.90;;;;;;4992081;28;20041;-87
2022/05/06 06:38:37;;;;;;;11.90;10.75;;;15.00;99.90;;;;;;4989315;28;20022;-86
2022/05/06 06:41:03;;;;;;;11.70;10.63;;;15.00;99.90;;;;;;4989537;28;20030;-87
2022/05/06 06:43:29;;;;;;;12.25;10.90;;;15.10;99.90;;;;;;4989802;28;20022;-87
2022/05/06 06:45:56;;;;;;;10.52;9.45;;;15.20;99.90;;;;;;4987588;28;20030;-87
2022/05/06 06:48:24;;;;;;;12.40;11.10;;;15.20;99.90;;;;;;4990860;28;20053;-86
2022/05/06 06:50:51;;;;;;;10.73;9.68;;;15.30;99.90;;;;;;4991507;28;20084;-87
2022/05/06 06:53:16;;;;;;;11.18;10.18;;;15.40;99.90;;;;;;4972993;28;20096;-87
2022/05/06 06:55:42;;;;;;;9.88;8.88;;;15.50;99.90;;;;;;4990944;28;20034;-87
2022/05/06 06:58:08;;;;;;;10.88;8.52;;;15.60;99.90;;;;;;4973121;28;20484;-87
2022/05/06 07:00:34;;;;;;;13.68;8.52;;;15.70;99.90;;;;;;4990917;28;20049;-87
2022/05/06 07:02:59;;;;;;;9.50;7.85;;;15.80;99.90;;;;;;4989893;28;20022;-87
2022/05/06 07:05:25;;;;;;;9.48;8.43;;;15.90;99.90;;;;;;4990917;28;20496;-88
2022/05/06 07:13:22;;;;;;;8.30;7.50;;;16.20;99.90;;;;;;4990392;28;20061;-87
2022/05/06 07:15:48;;;;;;;9.43;8.05;;;16.30;99.90;;;;;;4987096;28;20043;-86
2022/05/06 07:18:14;;;;;;;7.85;7.10;;;16.40;99.90;;;;;;4989814;28;20019;-88
2022/05/06 07:20:44;;;;;;;7.82;7.03;;;16.30;99.90;;;;;;4989540;28;20568;-90
2022/05/06 07:23:10;;;;;;;8.75;7.57;;;16.40;99.90;;;;;;4989797;28;20033;-87
2022/05/06 07:25:37;;;;;;;10.10;7.80;;;16.30;99.90;;;;;;4990706;28;20026;-88
2022/05/06 07:28:08;;;;;;;8.60;7.65;;;16.30;99.90;;;;;;4989997;28;20089;-87
2022/05/06 07:30:34;;;;;;;7.75;6.95;;;16.30;99.90;;;;;;4989384;28;20037;-89
2022/05/06 07:33:00;;;;;;;18.70;7.47;;;16.30;99.90;;;;;;4990970;28;20914;-87
2022/05/06 07:35:26;;;;;;;8.98;7.80;;;16.30;99.90;;;;;;4990714;28;20120;-87
2022/05/06 07:37:51;;;;;;;8.65;7.68;;;16.30;99.90;;;;;;4990592;28;20137;-89
2022/05/06 07:40:17;;;;;;;9.98;7.30;;;16.30;99.90;;;;;;4992162;28;20030;-87
2022/05/06 07:42:45;;;;;;;8.93;7.13;;;16.40;99.90;;;;;;4977347;28;20033;-89
2022/05/06 07:45:13;;;;;;;8.95;7.70;;;16.50;99.90;;;;;;4993273;28;20026;-89
2022/05/06 07:47:39;;;;;;;8.35;7.55;;;16.50;99.90;;;;;;4998644;28;20034;-89
2022/05/06 07:50:05;;;;;;;9.52;7.05;;;16.60;99.90;;;;;;4999584;28;20511;-89
2022/05/06 07:52:31;;;;;;;8.65;7.18;;;16.70;99.90;;;;;;4990972;28;20030;-88
2022/05/06 07:55:00;;;;;;;8.02;7.22;;;16.70;99.90;;;;;;5009638;28;20056;-85
2022/05/06 07:57:25;;;;;;;7.30;6.65;;;16.70;99.90;;;;;;5010656;28;20078;-89
2022/05/06 07:59:51;;;;;;;7.35;6.70;;;16.90;99.90;;;;;;4995972;28;20058;-89
2022/05/06 08:05:01;;;;;;;9.20;7.03;;;16.90;99.90;;;;;;4993611;28;20033;-89
2022/05/06 08:07:27;;;;;;;8.43;6.45;;;16.90;99.90;;;;;;4993074;28;20030;-87
2022/05/06 08:09:52;;;;;;;7.20;6.07;;;16.90;99.90;;;;;;4991851;28;20022;-89
2022/05/06 08:12:18;;;;;;;7.25;6.53;;;17.00;99.90;;;;;;4991486;28;20092;-86
2022/05/06 08:14:44;;;;;;;7.38;5.90;;;17.00;99.90;;;;;;4994536;28;20054;-90
2022/05/06 08:17:11;;;;;;;18.73;6.50;;;17.00;99.90;;;;;;4990843;28;20029;-89
2022/05/06 08:19:37;;;;;;;8.45;6.13;;;17.10;99.90;;;;;;4990976;28;20407;-89
2022/05/06 08:22:03;;;;;;;6.72;5.55;;;17.20;99.90;;;;;;4990735;28;20023;-88
2022/05/06 08:24:29;;;;;;;6.82;5.10;;;17.20;99.90;;;;;;4989940;28;20062;-89
2022/05/06 08:26:54;;;;;;;6.10;5.50;;;17.20;99.90;;;;;;4991133;28;20192;-89
2022/05/06 08:29:23;;;;;;;9.23;5.22;;;17.20;99.90;;;;;;4989254;28;20394;-89
2022/05/06 08:31:50;;;;;;;6.93;5.55;;;17.10;99.90;;;;;;4974683;28;20468;-88
2022/05/06 08:34:16;;;;;;;10.48;5.20;;;17.20;99.90;;;;;;4992996;28;20034;-83
2022/05/06 08:36:46;;;;;;;6.63;5.40;;;17.00;99.90;;;;;;4992352;28;20081;-92
2022/05/06 08:39:12;;;;;;;7.90;5.30;;;17.10;99.90;;;;;;4992197;28;20113;-83
2022/05/06 08:41:38;;;;;;;7.70;5.72;;;17.10;99.90;;;;;;4992301;28;20026;-82
2022/05/06 08:52:36;;;;;;;7.85;5.93;;;17.90;99.90;;;;;;4990135;28;20281;-84
2022/05/06 08:55:04;;;;;;;6.20;5.18;;;18.20;99.90;;;;;;4994285;28;20109;-81
2022/05/06 08:57:35;;;;;;;9.73;5.25;;;18.40;99.90;;;;;;4990581;28;20532;-81
2022/05/06 09:00:01;;;;;;;6.65;5.43;;;18.60;99.90;;;;;;4992067;28;20029;-81
2022/05/06 09:02:27;;;;;;;8.68;5.28;;;18.70;99.90;;;;;;4989662;28;20287;-81
2022/05/06 09:04:52;;;;;;;8.25;4.82;;;18.70;99.90;;;;;;4993962;28;20437;-86
2022/05/06 09:07:21;;;;;;;7.60;4.90;;;18.60;99.90;;;;;;4973333;28;20042;-84
2022/05/06 09:10:13;;;;;;;6.90;4.65;;;18.70;99.90;;;;;;4993273;28;20394;-84
2022/05/06 09:12:46;;;;;;;7.93;4.78;;;18.80;99.90;;;;;;4971150;28;20117;-84
2022/05/06 09:18:04;;;;;;;7.13;4.53;;;18.90;99.90;;;;;;4991201;28;20042;-85
2022/05/06 09:20:30;;;;;;;5.65;4.22;;;18.80;99.90;;;;;;4990518;28;20110;-84
2022/05/06 09:22:57;;;;;;;5.13;4.35;;;18.70;99.90;;;;;;4990687;28;20030;-84
2022/05/06 09:25:40;;;;;;;6.15;4.47;;;18.50;99.90;;;;;;4991477;28;20496;-84
2022/05/06 09:28:20;;;;;;;5.07;3.95;;;18.40;99.90;;;;;;4974335;28;20093;-83
2022/05/06 09:31:01;;;;;;;4.90;4.18;;;18.40;99.90;;;;;;4991557;28;20023;-82
2022/05/06 09:33:31;;;;;;;7.78;4.53;;;18.30;99.90;;;;;;4989619;28;20030;-85
2022/05/06 09:35:57;;;;;;;11.20;4.60;;;18.30;99.90;;;;;;4991076;28;20058;-83
2022/05/06 09:38:29;;;;;;;7.50;4.53;;;18.20;99.90;;;;;;4987861;28;20085;-83
2022/05/06 09:40:57;;;;;;;7.60;4.43;;;18.20;99.90;;;;;;4988717;28;20019;-82
2022/05/06 09:43:26;;;;;;;8.25;4.45;;;18.10;99.90;;;;;;4991961;28;20202;-84
2022/05/06 09:45:52;;;;;;;6.35;4.13;;;18.10;99.90;;;;;;4985502;28;20023;-83
2022/05/06 09:48:18;;;;;;;7.10;4.88;;;18.00;99.90;;;;;;4990348;28;20152;-84
2022/05/06 09:50:46;;;;;;;7.55;4.50;;;18.00;99.90;;;;;;4990182;28;20485;-85
2022/05/06 09:53:13;;;;;;;9.65;4.85;;;17.90;99.90;;;;;;4990745;28;20030;-83
2022/05/06 09:55:45;;;;;;;6.28;4.78;;;18.00;99.90;;;;;;4990186;28;20081;-83
2022/05/06 09:58:12;;;;;;;5.07;4.32;;;18.00;99.90;;;;;;4973521;28;20385;-84
2022/05/06 10:00:38;;;;;;;7.80;4.78;;;18.10;99.90;;;;;;4991010;28;20069;-83
2022/05/06 10:03:06;;;;;;;9.45;4.57;;;18.00;99.90;;;;;;4990841;28;20489;-82
2022/05/06 10:05:36;;;;;;;5.25;4.32;;;18.10;99.90;;;;;;4991311;28;20049;-83
2022/05/06 10:08:12;;;;;;;7.55;4.25;;;18.20;99.90;;;;;;4990758;28;20043;-84
2022/05/06 10:11:08;;;;;;;5.20;4.18;;;18.40;99.90;;;;;;4966391;28;20026;-81
2022/05/06 10:13:34;;;;;;;8.15;4.38;;;18.50;99.90;;;;;;4988526;28;20074;-86
2022/05/06 10:16:00;;;;;;;5.63;4.07;;;18.90;99.90;;;;;;4970120;28;20057;-85
2022/05/06 10:18:39;;;;;;;5.85;4.10;;;19.10;99.90;;;;;;4989047;28;20034;-86
2022/05/06 10:21:08;;;;;;;4.93;3.40;;;19.30;99.90;;;;;;4987266;28;20170;-83
2022/05/06 10:23:53;;;;;;;6.80;3.10;;;19.50;99.90;;;;;;4990795;28;20030;-85
2022/05/06 10:26:41;;;;;;;6.90;2.92;;;19.70;99.90;;;;;;4973004;28;20492;-84
2022/05/06 10:35:05;;;;;;;6.82;2.80;;;20.20;99.90;;;;;;4991148;28;20165;-82
2022/05/06 10:37:51;;;;;;;5.40;3.35;;;20.20;99.90;;;;;;4989652;28;20104;-83
2022/05/06 10:40:23;;;;;;;5.15;3.30;;;20.20;99.90;;;;;;4987128;28;20030;-84
2022/05/06 10:42:49;;;;;;;6.38;2.45;;;20.30;99.90;;;;;;4990719;28;20029;-82
2022/05/06 10:45:31;;;;;;;6.07;2.65;;;20.30;99.90;;;;;;4989721;28;20495;-83
2022/05/06 10:47:57;;;;;;;3.93;3.03;;;20.20;99.90;;;;;;4988970;28;20038;-87
2022/05/06 10:50:29;;;;;;;3.83;2.67;;;20.30;99.90;;;;;;4990666;28;20041;-84
2022/05/06 10:52:56;;;;;;;8.25;2.70;;;20.30;99.90;;;;;;4992398;28;20061;-84
2022/05/06 10:55:24;;;;;;;5.72;2.60;;;20.30;99.90;;;;;;4995950;28;20030;-84
2022/05/06 10:57:58;;;;;;;4.22;2.30;;;20.40;99.90;;;;;;4994745;28;20223;-82
2022/05/06 11:00:27;;;;;;;4.55;2.28;;;20.60;99.90;;;;;;4993355;28;20018;-82
2022/05/06 11:02:52;;;;;;;14.13;4.35;;;20.70;99.90;;;;;;4994001;28;20521;-84
2022/05/06 11:05:24;;;;;;;5.03;3.70;;;20.90;99.90;;;;;;4994461;28;20038;-82
2022/05/06 11:07:55;;;;;;;5.90;3.27;;;20.60;99.90;;;;;;4993916;28;20034;-81
2022/05/06 11:10:25;;;;;;;3.08;2.35;;;20.50;99.90;;;;;;4993338;28;20022;-80
2022/05/06 11:12:59;;;;;;;4.40;2.20;;;20.70;99.90;;;;;;4993812;28;20038;-81
2022/05/06 11:15:31;;;;;;;5.55;2.70;;;20.50;99.90;;;;;;4993546;28;20034;-80
2022/05/06 11:18:05;;;;;;;13.73;2.40;;;20.20;99.90;;;;;;4991895;28;20065;-80
2022/05/06 11:20:33;;;;;;;5.22;2.05;;;20.10;99.90;;;;;;4983825;28;20034;-82
2022/05/06 11:23:04;;;;;;;4.20;2.75;;;19.90;99.90;;;;;;4991949;28;20029;-82
2022/05/06 11:25:35;;;;;;;6.90;2.78;;;19.80;99.90;;;;;;4989342;28;20026;-80
2022/05/06 11:28:13;;;;;;;3.50;2.40;;;19.50;99.90;;;;;;4992033;28;20056;-81
2022/05/06 11:30:46;;;;;;;8.07;3.22;;;19.70;99.90;;;;;;4988731;28;20035;-81
2022/05/06 11:33:24;;;;;;;8.68;2.95;;;19.80;99.90;;;;;;4993250;28;20045;-80
2022/05/06 11:35:52;;;;;;;5.70;2.80;;;19.90;99.90;;;;;;4996571;28;20022;-81
2022/05/06 11:38:31;;;;;;;5.28;2.65;;;19.80;99.90;;;;;;5005774;28;20030;-80
2022/05/06 11:41:06;;;;;;;5.78;2.83;;;19.80;99.90;;;;;;5005299;28;20570;-80
2022/05/06 11:43:32;;;;;;;6.22;3.10;;;19.40;99.90;;;;;;4992820;28;20026;-80
2022/05/06 11:48:46;;;;;;;8.55;2.90;;;18.90;99.90;;;;;;5009369;28;20060;-80
2022/05/06 11:51:22;;;;;;;8.90;2.90;;;18.60;99.90;;;;;;5000735;28;20030;-80
2022/05/06 11:53:50;;;;;;;5.68;3.17;;;18.40;99.90;;;;;;4991859;28;20026;-80
2022/05/06 11:56:25;;;;;;;5.50;2.83;;;18.30;99.90;;;;;;4992843;28;20032;-82
2022/05/06 11:58:53;;;;;;;5.45;2.92;;;18.30;99.90;;;;;;4992312;28;20018;-80
2022/05/06 12:01:30;;;;;;;6.72;3.10;;;18.30;99.90;;;;;;4991263;28;21088;-81
2022/05/06 12:04:04;;;;;;;8.23;3.22;;;18.60;99.90;;;;;;4992522;28;20113;-80
2022/05/06 12:06:32;;;;;;;7.55;2.60;;;18.80;99.90;;;;;;4978425;28;20026;-84
2022/05/06 12:09:17;;;;;;;9.05;3.03;;;19.20;99.90;;;;;;4993078;28;20031;-88
2022/05/06 12:11:44;;;;;;;6.57;3.10;;;19.40;99.90;;;;;;4991061;28;20026;-87
2022/05/06 12:14:19;;;;;;;6.20;3.00;;;19.80;99.90;;;;;;4993420;28;20418;-85
2022/05/06 12:17:02;;;;;;;5.47;2.83;;;19.90;99.90;;;;;;4989785;28;20073;-86
2022/05/06 12:19:39;;;;;;;6.97;3.28;;;20.20;99.90;;;;;;4992721;28;20076;-85
2022/05/06 12:22:14;;;;;;;9.00;3.25;;;20.50;99.90;;;;;;4992058;28;20046;-85
2022/05/06 12:24:45;;;;;;;8.23;3.05;;;20.40;99.90;;;;;;4990939;28;20022;-87
2022/05/06 12:27:11;;;;;;;7.60;3.28;;;20.20;99.90;;;;;;4990770;28;20037;-86
2022/05/06 12:29:39;;;;;;;5.70;3.17;;;20.10;99.90;;;;;;4992682;28;20027;-87
2022/05/06 12:32:05;;;;;;;4.82;3.17;;;19.90;99.90;;;;;;4991863;28;20038;-86
2022/05/06 12:34:31;;;;;;;8.10;3.30;;;19.90;99.90;;;;;;4992448;28;20026;-87
2022/05/06 12:37:14;;;;;;;7.25;3.22;;;19.80;99.90;;;;;;4993518;28;20113;-87
2022/05/06 12:39:41;;;;;;;6.68;2.97;;;19.90;99.90;;;;;;4990974;28;20057;-87
2022/05/06 12:42:18;;;;;;;7.00;3.20;;;20.20;99.90;;;;;;4992260;28;20113;-86
2022/05/06 12:44:45;;;;;;;8.75;3.38;;;20.30;99.90;;;;;;4991010;28;20624;-87
2022/05/06 12:50:09;;;;;;;13.90;3.13;;;20.20;99.90;;;;;;4990471;28;20559;-87
2022/05/06 12:52:36;;;;;;;5.75;3.40;;;20.10;99.90;;;;;;4976207;28;20062;-86
2022/05/06 12:55:02;;;;;;;10.25;2.95;;;20.20;99.90;;;;;;4992470;28;20673;-87
2022/05/06 12:57:28;;;;;;;7.03;2.92;;;20.20;99.90;;;;;;4992075;28;20050;-87
2022/05/06 12:59:54;;;;;;;4.20;2.97;;;20.00;99.90;;;;;;4991864;28;20052;-86
2022/05/06 13:02:23;;;;;;;5.68;2.83;;;19.90;99.90;;;;;;4991621;28;20077;-87
2022/05/06 13:04:49;;;;;;;4.80;3.35;;;19.60;99.90;;;;;;4991789;28;20033;-87
2022/05/06 13:07:15;;;;;;;8.13;3.35;;;19.50;99.90;;;;;;4992028;28;20042;-88
2022/05/06 13:09:40;;;;;;;10.43;3.25;;;19.40;99.90;;;;;;4991914;28;20489;-88
2022/05/06 13:12:08;;;;;;;5.03;3.03;;;19.40;99.90;;;;;;4990718;28;20125;-89
2022/05/06 13:14:34;;;;;;;8.50;2.80;;;19.40;99.90;;;;;;4994562;28;20042;-89
2022/05/06 13:17:00;;;;;;;7.68;3.55;;;19.50;99.90;;;;;;4975868;28;20026;-95
2022/05/06 13:19:29;;;;;;;10.05;3.97;;;19.70;99.90;;;;;;4999716;28;20010;-93
2022/05/06 13:21:58;;;;;;;11.73;3.90;;;19.90;99.90;;;;;;4998774;28;20070;-93
2022/05/06 13:24:23;;;;;;;9.68;3.75;;;19.90;99.90;;;;;;5000861;28;20034;-93
2022/05/06 13:26:50;;;;;;;7.30;3.83;;;20.00;99.90;;;;;;5006483;28;20030;-93